createdAt,value
2023-04-03T00:01:06.559Z,13.03
2023-04-03T00:03:33.710Z,6.87
2023-04-03T00:06:01.090Z,8.43
2023-04-03T00:08:28.036Z,8.40
2023-04-03T00:10:54.862Z,9.40
2023-04-03T00:13:21.642Z,20.80
2023-04-03T00:15:48.717Z,7.20
2023-04-03T00:18:16.113Z,10.50
2023-04-03T00:20:44.648Z,11.30
2023-04-03T00:23:12.058Z,19.47
2023-04-03T00:25:39.139Z,11.67
2023-04-03T00:28:07.485Z,7.27
2023-04-03T00:30:36.362Z,11.13
2023-04-03T00:33:03.717Z,7.20
2023-04-03T00:35:30.892Z,9.50
2023-04-03T00:37:59.049Z,6.10
2023-04-03T00:40:27.774Z,17.23
2023-04-03T00:43:00.515Z,17.83
2023-04-03T00:45:38.142Z,22.00
2023-04-03T00:48:07.986Z,12.77
2023-04-03T00:50:38.852Z,8.03
2023-04-03T00:53:08.523Z,11.80
2023-04-03T00:55:37.914Z,12.27
2023-04-03T00:58:05.992Z,13.17
2023-04-03T01:00:33.096Z,8.60
2023-04-03T01:03:00.760Z,27.13
2023-04-03T01:05:27.946Z,10.57
2023-04-03T01:07:55.345Z,9.67
2023-04-03T01:10:23.126Z,12.53
2023-04-03T01:12:51.756Z,9.60
2023-04-03T01:15:23.856Z,5.77
2023-04-03T01:17:59.005Z,13.77
2023-04-03T01:20:36.809Z,5.73
2023-04-03T01:23:21.697Z,8.23
2023-04-03T01:25:51.651Z,8.15
2023-04-03T01:28:28.934Z,5.87
2023-04-03T01:31:24.005Z,6.87
2023-04-03T01:33:51.391Z,7.17
2023-04-03T01:36:22.918Z,7.83
2023-04-03T01:38:50.154Z,6.10
2023-04-03T01:41:17.638Z,12.03
2023-04-03T01:43:44.951Z,7.43
2023-04-03T01:46:12.099Z,8.60
2023-04-03T01:48:39.592Z,7.97
2023-04-03T01:51:06.756Z,4.03
2023-04-03T01:53:33.933Z,2.97
2023-04-03T01:56:00.959Z,7.07
2023-04-03T01:58:27.929Z,8.17
2023-04-03T02:00:55.472Z,5.10
2023-04-03T02:03:23.166Z,5.90
2023-04-03T02:05:51.763Z,4.93
2023-04-03T02:08:21.664Z,8.27
2023-04-03T02:10:51.406Z,5.17
2023-04-03T02:13:19.136Z,5.87
2023-04-03T02:15:49.157Z,6.50
2023-04-03T02:18:17.138Z,8.20
2023-04-03T02:20:44.240Z,6.13
2023-04-03T02:23:11.219Z,7.20
2023-04-03T02:25:38.905Z,10.97
2023-04-03T02:28:07.491Z,4.37
2023-04-03T02:30:34.498Z,6.90
2023-04-03T02:33:01.553Z,10.90
2023-04-03T02:35:30.526Z,9.23
2023-04-03T02:37:58.624Z,8.60
2023-04-03T02:40:25.516Z,9.43
2023-04-03T02:42:52.532Z,6.93
2023-04-03T02:45:19.561Z,5.40
2023-04-03T02:47:47.561Z,11.20
2023-04-03T02:50:14.601Z,3.90
2023-04-03T02:52:41.373Z,9.10
2023-04-03T02:55:08.648Z,5.40
2023-04-03T02:57:36.353Z,6.87
2023-04-03T03:00:04.297Z,17.30
2023-04-03T03:02:31.331Z,43.67
2023-04-03T03:04:58.272Z,12.03
2023-04-03T03:07:25.602Z,29.63
2023-04-03T03:09:52.641Z,14.17
2023-04-03T03:12:22.789Z,6.87
2023-04-03T03:14:50.298Z,11.90
2023-04-03T03:17:17.655Z,9.13
2023-04-03T03:19:45.102Z,6.67
2023-04-03T03:22:11.866Z,5.30
2023-04-03T03:24:38.800Z,10.27
2023-04-03T03:27:05.837Z,5.33
2023-04-03T03:29:32.736Z,5.77
2023-04-03T03:31:59.598Z,10.33
2023-04-03T03:34:26.350Z,9.27
2023-04-03T03:36:53.253Z,24.47
2023-04-03T03:39:19.962Z,9.07
2023-04-03T03:41:46.756Z,9.87
2023-04-03T03:44:14.897Z,7.33
2023-04-03T03:46:42.267Z,8.80
2023-04-03T03:49:09.203Z,7.97
2023-04-03T03:51:36.584Z,4.50
2023-04-03T03:54:03.335Z,3.17
2023-04-03T03:56:30.217Z,5.43
2023-04-03T03:58:57.236Z,6.37
2023-04-03T04:01:24.765Z,6.33
2023-04-03T04:03:52.011Z,4.50
2023-04-03T04:06:18.868Z,4.10
2023-04-03T04:08:45.601Z,3.90
2023-04-03T04:11:12.382Z,3.13
2023-04-03T04:13:39.247Z,8.17
2023-04-03T04:16:06.431Z,8.47
2023-04-03T04:18:33.254Z,7.20
2023-04-03T04:21:00.271Z,6.30
2023-04-03T04:23:27.073Z,3.27
2023-04-03T04:25:53.949Z,6.90
2023-04-03T04:28:20.837Z,6.20
2023-04-03T04:30:47.743Z,7.93
2023-04-03T04:33:15.187Z,5.37
2023-04-03T04:35:44.424Z,8.67
2023-04-03T04:38:11.484Z,5.07
2023-04-03T04:40:38.803Z,8.87
2023-04-03T04:43:05.949Z,8.53
2023-04-03T04:45:32.686Z,8.97
2023-04-03T04:47:59.450Z,4.87
2023-04-03T04:50:26.280Z,5.77
2023-04-03T04:52:53.008Z,3.03
2023-04-03T04:55:20.452Z,5.07
2023-04-03T04:57:47.621Z,6.27
2023-04-03T05:00:15.090Z,4.67
2023-04-03T05:02:42.037Z,2.97
2023-04-03T05:05:09.258Z,5.93
2023-04-03T05:07:36.781Z,4.27
2023-04-03T05:10:04.766Z,4.30
2023-04-03T05:12:31.512Z,8.57
2023-04-03T05:14:58.261Z,5.60
2023-04-03T05:17:25.064Z,6.13
2023-04-03T05:19:51.831Z,7.63
2023-04-03T05:22:18.670Z,5.97
2023-04-03T05:24:45.486Z,6.27
2023-04-03T05:27:12.308Z,3.87
2023-04-03T05:29:39.125Z,5.90
2023-04-03T05:32:06.228Z,5.90
2023-04-03T05:34:33.449Z,3.97
2023-04-03T05:37:00.234Z,4.57
2023-04-03T05:39:27.252Z,5.70
2023-04-03T05:41:54.059Z,6.77
2023-04-03T05:44:20.981Z,4.13
2023-04-03T05:46:47.763Z,3.30
2023-04-03T05:49:15.758Z,3.23
2023-04-03T05:51:42.620Z,4.97
2023-04-03T05:54:29.467Z,3.70
2023-04-03T05:56:57.619Z,4.20
2023-04-03T05:59:24.357Z,6.03
2023-04-03T06:01:51.103Z,5.50
2023-04-03T06:04:18.075Z,3.30
2023-04-03T06:06:47.568Z,3.20
2023-04-03T06:09:15.367Z,6.40
2023-04-03T06:11:42.910Z,5.10
2023-04-03T06:14:10.797Z,4.67
2023-04-03T06:16:39.740Z,2.83
2023-04-03T06:19:08.115Z,6.30
2023-04-03T06:21:34.952Z,5.90
2023-04-03T06:24:02.175Z,4.73
2023-04-03T06:26:29.696Z,2.30
2023-04-03T06:28:57.331Z,4.27
2023-04-03T06:31:24.667Z,3.77
2023-04-03T06:33:51.645Z,3.63
2023-04-03T06:36:21.653Z,4.67
2023-04-03T06:38:48.976Z,6.30
2023-04-03T06:41:17.375Z,6.30
2023-04-03T06:43:47.216Z,4.13
2023-04-03T06:46:18.385Z,5.13
2023-04-03T06:48:46.470Z,5.77
2023-04-03T06:51:21.689Z,4.03
2023-04-03T06:53:49.309Z,2.53
2023-04-03T06:56:17.458Z,2.83
2023-04-03T06:58:45.438Z,2.73
2023-04-03T07:01:13.975Z,4.77
2023-04-03T07:03:41.631Z,6.17
2023-04-03T07:06:11.917Z,3.17
2023-04-03T07:08:38.870Z,3.90
2023-04-03T07:11:06.942Z,7.20
2023-04-03T07:13:33.804Z,5.93
2023-04-03T07:16:00.596Z,3.57
2023-04-03T07:18:27.703Z,5.03
2023-04-03T07:20:54.588Z,3.20
2023-04-03T07:23:21.427Z,3.10
2023-04-03T07:25:50.058Z,3.17
2023-04-03T07:28:18.204Z,5.93
2023-04-03T07:30:47.405Z,3.70
2023-04-03T07:33:15.670Z,3.40
2023-04-03T07:35:43.409Z,5.20
2023-04-03T07:38:10.687Z,3.73
2023-04-03T07:40:38.580Z,2.73
2023-04-03T07:43:06.446Z,3.27
2023-04-03T07:45:36.323Z,2.23
2023-04-03T07:48:03.513Z,2.13
2023-04-03T07:50:32.144Z,4.50
2023-04-03T07:52:59.266Z,4.50
2023-04-03T07:55:26.869Z,2.40
2023-04-03T07:57:53.658Z,2.40
2023-04-03T08:00:20.745Z,3.50
2023-04-03T08:02:52.719Z,3.43
2023-04-03T08:05:21.773Z,2.90
2023-04-03T08:07:49.095Z,4.97
2023-04-03T08:10:16.324Z,2.70
2023-04-03T08:12:43.229Z,5.20
2023-04-03T08:15:10.835Z,2.93
2023-04-03T08:17:38.673Z,3.27
2023-04-03T08:20:07.762Z,5.43
2023-04-03T08:22:35.117Z,4.67
2023-04-03T08:25:02.806Z,3.17
2023-04-03T08:27:29.733Z,2.97
2023-04-03T08:29:58.014Z,2.80
2023-04-03T08:32:25.574Z,3.73
2023-04-03T08:34:52.461Z,2.77
2023-04-03T08:37:20.149Z,4.83
2023-04-03T08:39:46.971Z,4.10
2023-04-03T08:42:25.864Z,2.60
2023-04-03T08:45:02.811Z,5.20
2023-04-03T08:47:55.345Z,3.23
2023-04-03T08:50:32.668Z,2.80
2023-04-03T08:53:02.848Z,2.00
2023-04-03T08:55:38.857Z,1.47
2023-04-03T08:58:08.417Z,2.60
2023-04-03T09:01:05.014Z,4.90
2023-04-03T09:03:34.185Z,3.33
2023-04-03T09:06:16.248Z,2.10
2023-04-03T09:09:01.584Z,4.73
2023-04-03T09:11:52.658Z,2.70
2023-04-03T09:14:30.812Z,5.10
2023-04-03T09:17:04.394Z,3.27
2023-04-03T09:19:31.145Z,3.77
2023-04-03T09:22:20.136Z,1.97
2023-04-03T09:24:51.159Z,10.87
2023-04-03T09:27:18.086Z,7.73
2023-04-03T09:29:47.100Z,5.93
2023-04-03T09:32:27.442Z,18.83
2023-04-03T09:34:58.148Z,6.47
2023-04-03T09:38:00.840Z,3.07
2023-04-03T09:40:27.604Z,4.13
2023-04-03T09:43:01.348Z,9.37
2023-04-03T09:45:34.789Z,5.83
2023-04-03T09:48:23.119Z,5.40
2023-04-03T09:50:57.691Z,4.90
2023-04-03T09:53:32.247Z,8.60
2023-04-03T09:56:00.172Z,5.17
2023-04-03T09:58:49.011Z,7.60
2023-04-03T10:01:36.797Z,4.93
2023-04-03T10:04:15.148Z,7.47
2023-04-03T10:06:47.961Z,7.93
2023-04-03T10:09:20.021Z,6.80
2023-04-03T10:12:02.260Z,5.03
2023-04-03T10:14:31.072Z,1.60
2023-04-03T10:17:12.970Z,6.10
2023-04-03T10:19:59.257Z,3.50
2023-04-03T10:22:43.417Z,3.03
2023-04-03T10:25:27.711Z,5.40
2023-04-03T10:28:11.996Z,7.33
2023-04-03T10:30:41.668Z,2.37
2023-04-03T10:33:36.460Z,2.27
2023-04-03T10:36:35.897Z,3.30
2023-04-03T10:39:05.957Z,3.47
2023-04-03T10:41:43.218Z,3.00
2023-04-03T10:44:32.473Z,5.57
2023-04-03T10:47:11.020Z,2.87
2023-04-03T10:49:59.849Z,3.77
2023-04-03T10:52:53.799Z,5.87
2023-04-03T10:55:32.680Z,9.10
2023-04-03T10:58:00.702Z,5.43
2023-04-03T11:00:47.486Z,3.80
2023-04-03T11:03:22.531Z,4.77
2023-04-03T11:05:54.686Z,7.43
2023-04-03T11:08:40.948Z,9.20
2023-04-03T11:11:13.738Z,1.87
2023-04-03T11:13:55.591Z,3.93
2023-04-03T11:16:28.198Z,4.53
2023-04-03T11:19:04.078Z,5.53
2023-04-03T11:21:36.636Z,2.27
2023-04-03T11:24:08.878Z,1.77
2023-04-03T11:26:40.895Z,4.47
2023-04-03T11:29:20.742Z,4.43
2023-04-03T11:32:22.308Z,2.33
2023-04-03T11:34:52.333Z,0.93
2023-04-03T11:37:47.273Z,4.03
2023-04-03T11:40:17.133Z,3.97
2023-04-03T11:43:05.116Z,1.63
2023-04-03T11:45:52.083Z,7.33
2023-04-03T11:48:24.524Z,6.37
2023-04-03T11:50:53.016Z,7.00
2023-04-03T11:53:38.347Z,18.03
2023-04-03T11:56:25.029Z,7.73
2023-04-03T11:59:25.061Z,9.20
2023-04-03T12:01:56.953Z,6.70
2023-04-03T12:04:27.931Z,2.80
2023-04-03T12:07:21.397Z,6.97
2023-04-03T12:09:49.051Z,1.20
2023-04-03T12:12:35.757Z,2.90
2023-04-03T12:15:41.662Z,3.83
2023-04-03T12:18:38.983Z,3.83
2023-04-03T12:21:05.912Z,3.57
2023-04-03T12:23:35.785Z,3.93
2023-04-03T12:26:20.718Z,5.77
2023-04-03T12:28:49.603Z,3.93
2023-04-03T12:31:18.255Z,3.63
2023-04-03T12:33:57.776Z,3.60
2023-04-03T12:36:49.292Z,3.20
2023-04-03T12:39:56.622Z,2.30
2023-04-03T12:42:47.882Z,3.73
2023-04-03T12:45:22.167Z,1.17
2023-04-03T12:47:56.983Z,1.73
2023-04-03T12:50:31.123Z,1.40
2023-04-03T12:53:03.140Z,2.27
2023-04-03T12:55:29.977Z,3.90
2023-04-03T12:57:56.790Z,1.98
2023-04-03T13:00:36.385Z,2.95
2023-04-03T13:03:04.958Z,1.50
2023-04-03T13:05:35.974Z,4.60
2023-04-03T13:08:08.842Z,1.60
2023-04-03T13:10:59.112Z,1.83
2023-04-03T13:13:27.342Z,3.40
2023-04-03T13:15:56.133Z,1.80
2023-04-03T13:18:30.228Z,2.50
2023-04-03T13:21:07.158Z,2.20
2023-04-03T13:23:39.395Z,2.03
2023-04-03T13:26:07.555Z,2.23
2023-04-03T13:28:36.284Z,2.77
2023-04-03T13:31:15.285Z,3.53
2023-04-03T13:33:53.477Z,1.80
2023-04-03T13:36:31.360Z,1.83
2023-04-03T13:39:01.300Z,2.40
2023-04-03T13:41:33.767Z,2.57
2023-04-03T13:44:24.039Z,1.93
2023-04-03T13:46:52.159Z,3.57
2023-04-03T13:49:44.937Z,2.53
2023-04-03T13:52:37.147Z,4.20
2023-04-03T13:55:24.556Z,5.03
2023-04-03T13:57:59.726Z,4.50
2023-04-03T14:00:32.372Z,2.27
2023-04-03T14:02:59.614Z,3.30
2023-04-03T14:05:27.666Z,2.30
2023-04-03T14:07:56.400Z,3.47
2023-04-03T14:10:23.773Z,4.13
2023-04-03T14:12:52.117Z,3.47
2023-04-03T14:15:27.355Z,3.47
2023-04-03T14:17:55.497Z,3.33
2023-04-03T14:20:26.049Z,4.73
2023-04-03T14:22:54.714Z,2.10
2023-04-03T14:25:24.940Z,2.03
2023-04-03T14:27:54.715Z,2.20
2023-04-03T14:30:33.442Z,2.07
2023-04-03T14:33:01.904Z,3.03
2023-04-03T14:35:29.323Z,3.63
2023-04-03T14:37:57.612Z,1.50
2023-04-03T14:40:28.212Z,1.97
2023-04-03T14:42:56.462Z,2.63
2023-04-03T14:45:24.662Z,3.30
2023-04-03T14:47:56.223Z,3.70
2023-04-03T14:50:27.772Z,4.10
2023-04-03T14:52:58.712Z,5.53
2023-04-03T14:55:26.633Z,22.57
2023-04-03T14:57:54.539Z,7.13
2023-04-03T15:00:23.133Z,5.43
2023-04-03T15:02:50.774Z,2.77
2023-04-03T15:05:18.016Z,3.17
2023-04-03T15:07:53.248Z,5.10
2023-04-03T15:10:30.396Z,5.10
2023-04-03T15:12:58.504Z,7.90
2023-04-03T15:15:29.349Z,5.70
2023-04-03T15:17:59.969Z,5.37
2023-04-03T15:20:28.702Z,5.13
2023-04-03T15:22:57.559Z,4.80
2023-04-03T15:25:25.505Z,5.20
2023-04-03T15:27:52.457Z,6.43
2023-04-03T15:30:20.658Z,3.63
2023-04-03T15:32:47.773Z,7.00
2023-04-03T15:35:15.368Z,3.17
2023-04-03T15:37:42.488Z,9.37
2023-04-03T15:40:10.174Z,8.53
2023-04-03T15:42:37.127Z,6.00
2023-04-03T15:45:04.357Z,6.70
2023-04-03T15:47:32.315Z,7.27
2023-04-03T15:49:59.439Z,4.37
2023-04-03T15:52:26.266Z,6.07
2023-04-03T15:54:54.278Z,3.40
2023-04-03T15:57:21.286Z,7.87
2023-04-03T15:59:48.309Z,6.37
2023-04-03T16:02:15.408Z,9.03
2023-04-03T16:04:42.404Z,4.40
2023-04-03T16:07:09.579Z,3.27
2023-04-03T16:09:37.521Z,6.30
2023-04-03T16:12:06.709Z,6.87
2023-04-03T16:14:35.111Z,6.53
2023-04-03T16:17:02.254Z,5.30
2023-04-03T16:19:30.827Z,3.10
2023-04-03T16:21:58.846Z,11.87
2023-04-03T16:24:25.947Z,5.73
2023-04-03T16:26:54.686Z,5.83
2023-04-03T16:29:21.636Z,5.93
2023-04-03T16:31:48.789Z,5.53
2023-04-03T16:34:16.447Z,3.03
2023-04-03T16:36:43.585Z,9.77
2023-04-03T16:39:13.461Z,12.43
2023-04-03T16:41:40.892Z,14.47
2023-04-03T16:44:08.658Z,7.60
2023-04-03T16:46:36.096Z,11.37
2023-04-03T16:49:03.134Z,10.50
2023-04-03T16:51:30.046Z,13.40
2023-04-03T16:53:57.100Z,5.50
2023-04-03T16:56:24.241Z,2.77
2023-04-03T16:58:51.206Z,6.00
2023-04-03T17:01:20.272Z,2.67
2023-04-03T17:03:48.665Z,6.00
2023-04-03T17:06:21.483Z,4.07
2023-04-03T17:08:50.559Z,5.60
2023-04-03T17:11:18.342Z,7.33
2023-04-03T17:13:46.280Z,12.67
2023-04-03T17:16:16.132Z,14.73
2023-04-03T17:18:44.129Z,18.57
2023-04-03T17:21:12.786Z,17.30
2023-04-03T17:23:41.957Z,15.80
2023-04-03T17:26:08.776Z,17.20
2023-04-03T17:28:36.934Z,11.47
2023-04-03T17:31:04.878Z,7.03
2023-04-03T17:33:33.501Z,5.13
2023-04-03T17:36:02.897Z,5.33
2023-04-03T17:38:35.245Z,9.80
2023-04-03T17:41:05.845Z,8.17
2023-04-03T17:43:33.617Z,10.10
2023-04-03T17:46:05.873Z,11.23
2023-04-03T17:48:34.350Z,10.70
2023-04-03T17:51:14.903Z,9.17
2023-04-03T17:53:47.181Z,10.30
2023-04-03T17:56:18.394Z,13.30
2023-04-03T17:58:45.853Z,7.83
2023-04-03T18:01:19.198Z,6.40
2023-04-03T18:03:46.684Z,6.53
2023-04-03T18:06:17.426Z,9.23
2023-04-03T18:08:56.606Z,8.03
2023-04-03T18:11:27.474Z,8.43
2023-04-03T18:13:58.519Z,6.70
2023-04-03T18:16:26.599Z,9.40
2023-04-03T18:19:02.520Z,7.27
2023-04-03T18:21:41.069Z,7.97
2023-04-03T18:24:12.701Z,8.93
2023-04-03T18:26:41.556Z,10.53
2023-04-03T18:29:11.593Z,8.97
2023-04-03T18:31:42.053Z,11.17
2023-04-03T18:34:08.940Z,9.27
2023-04-03T18:36:35.976Z,8.93
2023-04-03T18:39:03.820Z,12.50
2023-04-03T18:41:33.794Z,5.77
2023-04-03T18:44:02.747Z,7.77
2023-04-03T18:46:29.942Z,8.50
2023-04-03T18:48:57.518Z,9.53
2023-04-03T18:51:25.716Z,7.10
2023-04-03T18:53:52.740Z,5.40
2023-04-03T18:56:19.610Z,9.00
2023-04-03T18:58:46.504Z,10.67
2023-04-03T19:01:14.723Z,13.53
2023-04-03T19:03:42.067Z,10.03
2023-04-03T19:06:09.119Z,13.70
2023-04-03T19:08:36.162Z,15.80
2023-04-03T19:11:03.462Z,27.87
2023-04-03T19:13:30.846Z,12.03
2023-04-03T19:15:59.105Z,12.00
2023-04-03T19:18:29.451Z,18.90
2023-04-03T19:20:57.779Z,15.80
2023-04-03T19:23:25.019Z,9.27
2023-04-03T19:26:04.152Z,10.60
2023-04-03T19:28:31.430Z,9.33
2023-04-03T19:30:59.392Z,8.27
2023-04-03T19:33:27.381Z,6.00
2023-04-03T19:35:54.863Z,6.67
2023-04-03T19:38:21.830Z,10.70
2023-04-03T19:40:48.710Z,9.77
2023-04-03T19:43:16.907Z,12.50
2023-04-03T19:45:45.990Z,9.73
2023-04-03T19:48:13.267Z,11.83
2023-04-03T19:50:41.116Z,13.00
2023-04-03T19:53:09.802Z,13.27
2023-04-03T19:55:36.812Z,16.97
2023-04-03T19:58:04.205Z,17.43
2023-04-03T20:00:31.766Z,17.43
2023-04-03T20:02:58.998Z,22.20
2023-04-03T20:05:26.057Z,28.23
2023-04-03T20:07:53.010Z,19.63
2023-04-03T20:10:20.339Z,22.03
2023-04-03T20:12:47.334Z,17.50
2023-04-03T20:15:14.383Z,30.93
2023-04-03T20:17:42.135Z,23.63
2023-04-03T20:20:09.549Z,14.00
2023-04-03T20:22:38.778Z,7.13
2023-04-03T20:25:08.626Z,8.03
2023-04-03T20:27:35.901Z,9.23
2023-04-03T20:30:05.410Z,18.53
2023-04-03T20:32:32.350Z,13.80
2023-04-03T20:35:04.358Z,17.63
2023-04-03T20:37:31.563Z,30.23
2023-04-03T20:39:58.392Z,15.43
2023-04-03T20:42:26.129Z,18.60
2023-04-03T20:44:53.087Z,11.13
2023-04-03T20:47:20.106Z,10.47
2023-04-03T20:49:46.997Z,13.47
2023-04-03T20:52:13.848Z,11.67
2023-04-03T20:54:41.349Z,12.77
2023-04-03T20:57:08.132Z,19.00
2023-04-03T20:59:35.200Z,11.33
2023-04-03T21:02:01.979Z,14.83
2023-04-03T21:04:46.593Z,19.50
2023-04-03T21:07:53.343Z,11.43
2023-04-03T21:10:59.500Z,19.07
2023-04-03T21:14:06.143Z,11.77
2023-04-03T21:16:33.662Z,33.13
2023-04-03T21:19:09.953Z,80.83
2023-04-03T21:21:37.046Z,18.07
2023-04-03T21:24:07.142Z,16.00
2023-04-03T21:26:34.426Z,17.17
2023-04-03T21:29:01.687Z,40.13
2023-04-03T21:31:53.278Z,16.47
2023-04-03T21:34:21.501Z,10.53
2023-04-03T21:36:51.781Z,9.70
2023-04-03T21:39:19.316Z,22.73
2023-04-03T21:41:47.039Z,92.07
2023-04-03T21:44:13.761Z,49.67
2023-04-03T21:46:40.581Z,18.10
2023-04-03T21:49:07.724Z,41.77
2023-04-03T21:51:35.649Z,40.73
2023-04-03T21:54:02.538Z,44.43
2023-04-03T21:56:31.379Z,59.03
2023-04-03T21:59:01.184Z,53.03
2023-04-03T22:01:28.632Z,36.57
2023-04-03T22:03:57.823Z,18.43
2023-04-03T22:06:25.579Z,13.23
2023-04-03T22:08:53.010Z,8.73
2023-04-03T22:11:22.998Z,19.67
2023-04-03T22:13:52.678Z,10.10
2023-04-03T22:16:19.690Z,12.53
2023-04-03T22:18:46.514Z,9.00
2023-04-03T22:21:13.236Z,36.60
2023-04-03T22:23:40.062Z,21.50
2023-04-03T22:26:08.884Z,48.63
2023-04-03T22:28:38.506Z,25.80
2023-04-03T22:31:08.741Z,24.73
2023-04-03T22:33:36.732Z,23.50
2023-04-03T22:36:07.948Z,14.07
2023-04-03T22:38:35.367Z,9.00
2023-04-03T22:41:04.195Z,18.33
2023-04-03T22:43:33.145Z,19.53
2023-04-03T22:46:01.249Z,12.90
2023-04-03T22:48:28.484Z,15.07
2023-04-03T22:50:59.999Z,20.10
2023-04-03T22:53:29.893Z,15.57
2023-04-03T22:56:01.823Z,26.10
2023-04-03T22:58:29.609Z,16.70
2023-04-03T23:01:07.607Z,18.10
2023-04-03T23:03:35.833Z,13.07
2023-04-03T23:06:06.168Z,15.57
2023-04-03T23:08:35.177Z,32.23
2023-04-03T23:11:02.480Z,13.17
2023-04-03T23:13:29.397Z,10.03
2023-04-03T23:15:57.820Z,11.73
2023-04-03T23:18:25.437Z,11.13
2023-04-03T23:20:52.253Z,10.77
2023-04-03T23:23:19.268Z,11.53
2023-04-03T23:25:47.967Z,11.80
2023-04-03T23:28:14.826Z,9.53
2023-04-03T23:30:43.576Z,9.27
2023-04-03T23:33:10.455Z,7.67
2023-04-03T23:35:43.630Z,11.90
2023-04-03T23:38:10.345Z,9.73
2023-04-03T23:40:37.214Z,8.83
2023-04-03T23:43:04.106Z,6.33
2023-04-03T23:45:30.810Z,8.83
2023-04-03T23:47:57.718Z,8.03
2023-04-03T23:50:24.509Z,9.87
2023-04-03T23:52:51.278Z,7.20
2023-04-03T23:55:18.027Z,13.73
2023-04-03T23:57:44.763Z,6.93
